Time;durP1;ratioP1;P1;durP2;ratioP2;P2;SDS_P1;SDS_P2;PMS_P1;PMS_P2;Temp;Humidity;BMP_temperature;BMP_pressure;BME280_temperature;BME280_humidity;BME280_pressure;Samples;Min_cycle;Max_cycle;Signal;HPM_P1;HPM_P2
2023/12/08 00:00:06;;;;;;;23.40;12.52;;;;;;;6.13;67.02;100797.38;5008968;28;20037;-45
2023/12/08 00:02:32;;;;;;;25.40;12.88;;;;;;;6.51;65.64;100787.31;5010161;28;20026;-45
2023/12/08 00:04:57;;;;;;;24.27;12.50;;;;;;;6.20;66.79;100773.44;5010578;28;20136;-45
2023/12/08 00:07:23;;;;;;;25.42;12.30;;;;;;;6.31;66.63;100780.66;5009385;28;20558;-45
2023/12/08 00:09:48;;;;;;;26.13;12.70;;;;;;;6.33;65.88;100772.97;4993841;28;20030;-44
2023/12/08 00:12:13;;;;;;;25.80;12.65;;;;;;;6.15;66.75;100760.38;5010703;28;20060;-48
2023/12/08 00:14:39;;;;;;;24.83;12.40;;;;;;;6.43;65.87;100754.25;5012276;28;20592;-49
2023/12/08 00:17:04;;;;;;;25.15;12.40;;;;;;;5.85;67.36;100739.59;5011312;28;20168;-44
2023/12/08 00:19:30;;;;;;;26.95;13.18;;;;;;;6.06;67.02;100731.59;5013719;28;20053;-47
2023/12/08 00:21:55;;;;;;;25.08;12.77;;;;;;;6.42;66.13;100726.59;5018592;28;20526;-43
2023/12/08 00:24:20;;;;;;;27.08;13.48;;;;;;;6.13;67.27;100720.59;5018216;28;20121;-44
2023/12/08 00:26:46;;;;;;;29.80;13.13;;;;;;;6.55;65.74;100752.00;5017566;28;20034;-45
2023/12/08 00:29:11;;;;;;;24.75;13.13;;;;;;;6.53;66.01;100739.84;5011203;28;20051;-47
2023/12/08 00:31:36;;;;;;;27.85;12.93;;;;;;;6.37;66.54;100738.53;5009477;28;20134;-45
2023/12/08 00:34:02;;;;;;;26.55;13.25;;;;;;;6.34;66.20;100743.66;5010794;28;20045;-44
2023/12/08 00:36:27;;;;;;;27.35;13.50;;;;;;;6.07;67.66;100743.72;5009633;28;20112;-48
2023/12/08 00:38:54;;;;;;;26.52;13.45;;;;;;;6.41;66.74;100743.84;5008406;28;20117;-47
2023/12/08 00:41:19;;;;;;;26.42;13.02;;;;;;;6.68;65.67;100743.72;5008251;28;20042;-45
2023/12/08 00:43:44;;;;;;;27.98;13.65;;;;;;;6.70;66.12;100739.47;5009972;28;20566;-46
2023/12/08 00:46:10;;;;;;;26.73;13.25;;;;;;;5.74;68.67;100733.19;5009964;28;20037;-47
2023/12/08 00:48:35;;;;;;;27.05;13.60;;;;;;;5.98;68.96;100752.06;5009207;28;20030;-46
2023/12/08 00:51:00;;;;;;;29.00;13.48;;;;;;;6.45;67.19;100752.59;5009645;28;20038;-46
2023/12/08 00:53:26;;;;;;;26.45;13.68;;;;;;;6.37;67.94;100764.44;5009470;28;20045;-45
2023/12/08 00:55:51;;;;;;;26.60;13.65;;;;;;;6.18;68.18;100773.38;5010193;28;20065;-50
2023/12/08 00:58:16;;;;;;;26.95;14.00;;;;;;;6.14;68.79;100775.84;5009424;28;20431;-44
2023/12/08 01:00:43;;;;;;;26.52;13.82;;;;;;;6.18;68.99;100780.25;5007982;28;20194;-45
2023/12/08 01:03:08;;;;;;;31.65;14.65;;;;;;;5.88;69.80;100768.16;5011018;28;20034;-46
2023/12/08 01:05:34;;;;;;;30.38;15.15;;;;;;;6.21;68.89;100768.31;5013243;28;20045;-45
2023/12/08 01:07:59;;;;;;;29.35;13.93;;;;;;;5.92;68.94;100756.19;5013503;28;20061;-46
2023/12/08 01:10:24;;;;;;;31.10;15.10;;;;;;;6.25;68.78;100764.97;5011806;28;20045;-46
2023/12/08 01:12:49;;;;;;;31.73;15.10;;;;;;;6.28;68.57;100762.44;5013345;28;20042;-45
2023/12/08 01:15:15;;;;;;;32.35;15.10;;;;;;;6.10;68.82;100765.38;5012111;28;20107;-48
2023/12/08 01:17:40;;;;;;;28.95;13.77;;;;;;;5.98;69.13;100753.78;5013609;28;20084;-47
2023/12/08 01:20:07;;;;;;;30.48;14.32;;;;;;;5.63;70.60;100761.31;5013180;28;20476;-46
2023/12/08 01:22:33;;;;;;;28.90;14.65;;;;;;;5.95;69.19;100745.94;5011417;28;20116;-48
2023/12/08 01:24:58;;;;;;;32.03;15.88;;;;;;;5.78;69.77;100745.41;5013375;28;20492;-48
2023/12/08 01:27:23;;;;;;;33.75;15.80;;;;;;;6.19;68.95;100743.19;5012810;28;20066;-47
2023/12/08 01:29:49;;;;;;;33.10;15.90;;;;;;;6.08;68.82;100742.91;5013569;28;20458;-46
2023/12/08 01:32:15;;;;;;;31.15;15.68;;;;;;;5.99;69.23;100734.84;5012663;28;20048;-47
2023/12/08 01:34:41;;;;;;;33.17;16.42;;;;;;;5.93;69.15;100735.53;5011811;28;20034;-45
2023/12/08 01:37:06;;;;;;;31.40;15.15;;;;;;;5.70;70.69;100737.41;5012566;28;20052;-46
2023/12/08 01:39:31;;;;;;;33.80;17.02;;;;;;;5.93;70.50;100721.72;5012853;28;20037;-48
2023/12/08 01:41:57;;;;;;;32.42;15.60;;;;;;;6.01;71.06;100718.53;5012632;28;20109;-47
2023/12/08 01:44:22;;;;;;;30.73;15.50;;;;;;;6.08;70.22;100714.44;5011028;28;20065;-47
2023/12/08 01:46:48;;;;;;;35.08;16.58;;;;;;;5.94;70.96;100705.38;5012653;28;20041;-46
2023/12/08 01:49:16;;;;;;;32.55;16.52;;;;;;;6.08;70.55;100691.13;5012408;28;20049;-45
2023/12/08 01:51:44;;;;;;;32.92;16.33;;;;;;;5.81;71.35;100675.66;5012664;28;20125;-48
2023/12/08 01:54:11;;;;;;;32.83;16.02;;;;;;;5.96;71.62;100654.56;5011176;28;20030;-46
2023/12/08 01:56:37;;;;;;;36.20;17.15;;;;;;;5.80;71.85;100660.06;5012242;28;20053;-46
2023/12/08 01:59:03;;;;;;;34.05;16.88;;;;;;;6.11;71.54;100671.38;5011144;28;20058;-46
2023/12/08 02:01:29;;;;;;;37.45;17.33;;;;;;;5.76;72.54;100681.53;5010655;28;20037;-46
2023/12/08 02:03:55;;;;;;;36.13;17.52;;;;;;;6.11;71.15;100673.09;5012722;28;20032;-48
2023/12/08 02:06:20;;;;;;;35.05;17.98;;;;;;;6.05;71.34;100671.22;5010800;28;20033;-47
2023/12/08 02:08:49;;;;;;;36.35;17.92;;;;;;;5.66;73.11;100670.91;5012780;28;20030;-48
2023/12/08 02:11:16;;;;;;;36.75;17.10;;;;;;;5.43;73.79;100658.13;5010620;28;20034;-47
2023/12/08 02:13:41;;;;;;;37.83;18.30;;;;;;;5.59;73.90;100655.16;4994953;28;20072;-45
2023/12/08 02:16:13;;;;;;;37.95;17.65;;;;;;;5.30;73.61;100646.53;5010084;28;20034;-46
2023/12/08 02:18:39;;;;;;;35.85;18.33;;;;;;;5.83;73.45;100645.53;5010673;28;20121;-47
2023/12/08 02:21:08;;;;;;;37.35;17.98;;;;;;;5.70;72.75;100627.91;5015735;28;20330;-45
2023/12/08 02:23:33;;;;;;;37.20;17.52;;;;;;;5.83;72.80;100630.00;5010550;28;20034;-49
2023/12/08 02:25:59;;;;;;;37.67;18.42;;;;;;;5.66;73.28;100645.06;5012340;28;20057;-48
2023/12/08 02:28:24;;;;;;;40.50;18.65;;;;;;;5.88;72.93;100649.16;5011978;28;20042;-47
2023/12/08 02:30:53;;;;;;;42.03;18.90;;;;;;;5.77;73.37;100653.13;5012076;28;20037;-50
2023/12/08 02:33:28;;;;;;;39.67;18.17;;;;;;;5.88;73.00;100656.91;5011952;28;20111;-51
2023/12/08 02:35:54;;;;;;;40.40;19.00;;;;;;;5.99;73.17;100639.97;5012807;28;20484;-50
2023/12/08 02:38:21;;;;;;;38.40;18.55;;;;;;;5.91;72.72;100648.38;5012342;28;20038;-45
2023/12/08 02:40:46;;;;;;;37.75;18.65;;;;;;;6.34;71.48;100678.91;5012871;28;20060;-46
2023/12/08 02:43:12;;;;;;;37.55;18.63;;;;;;;6.60;70.38;100692.53;5012950;28;20041;-46
2023/12/08 02:45:37;;;;;;;37.67;18.08;;;;;;;6.38;70.52;100691.97;5012154;28;20033;-48
2023/12/08 02:48:03;;;;;;;37.80;18.30;;;;;;;6.50;71.26;100694.03;5010470;28;20034;-44
2023/12/08 02:50:28;;;;;;;37.83;18.45;;;;;;;6.07;72.18;100679.91;5011370;28;20046;-44
2023/12/08 02:52:53;;;;;;;40.88;18.27;;;;;;;5.90;73.06;100683.72;5012177;28;20066;-46
2023/12/08 02:55:19;;;;;;;40.30;18.83;;;;;;;5.92;72.97;100679.44;5010699;28;20050;-45
2023/12/08 02:57:44;;;;;;;43.83;19.20;;;;;;;5.59;74.36;100670.69;5012548;28;20480;-50
2023/12/08 03:00:10;;;;;;;45.05;19.20;;;;;;;6.14;72.55;100673.19;5012144;28;20044;-44
2023/12/08 03:02:36;;;;;;;39.15;19.35;;;;;;;6.45;71.61;100668.00;5011769;28;20084;-45
2023/12/08 03:05:01;;;;;;;43.60;19.17;;;;;;;6.61;70.85;100658.91;5012085;28;20041;-45
2023/12/08 03:07:26;;;;;;;39.13;18.67;;;;;;;6.19;72.74;100656.06;5012893;28;20056;-47
2023/12/08 03:09:52;;;;;;;37.85;18.25;;;;;;;6.66;70.86;100651.25;5012105;28;20034;-47
2023/12/08 03:12:17;;;;;;;37.97;17.70;;;;;;;6.76;70.02;100650.66;5011362;28;20365;-47
2023/12/08 03:14:42;;;;;;;39.90;18.50;;;;;;;6.50;71.01;100643.09;5012849;28;20084;-45
2023/12/08 03:17:08;;;;;;;42.25;18.90;;;;;;;5.94;72.66;100638.09;5011475;28;20046;-45
2023/12/08 03:19:33;;;;;;;40.35;17.98;;;;;;;6.26;72.55;100642.47;5012076;28;20060;-49
2023/12/08 03:21:58;;;;;;;43.70;18.75;;;;;;;6.57;71.62;100638.97;5013585;28;20117;-44
2023/12/08 03:24:24;;;;;;;37.40;18.20;;;;;;;6.14;72.41;100615.38;5012735;28;20054;-46
2023/12/08 03:26:49;;;;;;;37.50;19.08;;;;;;;6.40;72.33;100597.06;5013008;28;20038;-44
2023/12/08 03:29:17;;;;;;;39.28;19.23;;;;;;;6.24;72.35;100588.88;5012398;28;20034;-45
2023/12/08 03:31:43;;;;;;;39.25;18.17;;;;;;;6.38;72.14;100585.81;5014305;28;20069;-46
2023/12/08 03:34:08;;;;;;;37.63;18.67;;;;;;;6.48;71.97;100574.84;5013636;28;20161;-48
2023/12/08 03:36:34;;;;;;;39.53;17.83;;;;;;;6.48;71.11;100582.63;5011454;28;20057;-48
2023/12/08 03:38:59;;;;;;;39.50;18.08;;;;;;;6.54;72.09;100602.59;5012176;28;20030;-46
2023/12/08 03:41:24;;;;;;;35.10;17.95;;;;;;;6.51;71.85;100597.38;5010375;28;20065;-46
2023/12/08 03:43:50;;;;;;;38.83;18.27;;;;;;;6.41;72.39;100596.25;5011357;28;20048;-45
2023/12/08 03:46:16;;;;;;;35.70;17.75;;;;;;;6.61;70.77;100598.47;5010675;28;20034;-45
2023/12/08 03:48:41;;;;;;;36.63;17.75;;;;;;;6.87;70.45;100600.84;5010762;28;20118;-46
2023/12/08 03:51:07;;;;;;;37.70;17.92;;;;;;;7.00;70.00;100604.63;5010590;28;20381;-46
2023/12/08 03:53:33;;;;;;;33.55;16.92;;;;;;;6.77;70.64;100603.19;5008920;28;20414;-49
2023/12/08 03:55:58;;;;;;;39.10;17.98;;;;;;;6.56;71.70;100608.72;5010795;28;20509;-45
2023/12/08 03:58:26;;;;;;;38.72;18.00;;;;;;;6.16;72.40;100599.03;5010136;28;20186;-45
2023/12/08 04:00:51;;;;;;;37.15;18.23;;;;;;;6.50;71.62;100599.09;5010330;28;20038;-47
2023/12/08 04:03:16;;;;;;;40.72;18.85;;;;;;;6.48;72.24;100603.34;5010164;28;20037;-48
2023/12/08 04:05:42;;;;;;;39.53;18.80;;;;;;;6.85;70.73;100612.00;5010386;28;20069;-45
2023/12/08 04:08:07;;;;;;;36.42;17.63;;;;;;;6.86;70.64;100614.66;5010624;28;20067;-45
2023/12/08 04:10:32;;;;;;;34.65;17.70;;;;;;;6.97;70.79;100614.91;5010459;28;20062;-46
2023/12/08 04:12:58;;;;;;;40.05;17.70;;;;;;;6.81;71.02;100613.66;5010884;28;20103;-46
2023/12/08 04:15:23;;;;;;;36.40;17.70;;;;;;;6.56;71.83;100606.13;5010025;28;20566;-49
2023/12/08 04:17:49;;;;;;;40.63;17.77;;;;;;;6.21;73.34;100592.28;5010965;28;20038;-44
2023/12/08 04:20:16;;;;;;;39.03;17.83;;;;;;;6.46;72.65;100586.88;5010173;28;20042;-45
2023/12/08 04:22:41;;;;;;;37.72;17.40;;;;;;;6.71;71.55;100579.75;5010933;28;20034;-46
2023/12/08 04:25:06;;;;;;;37.70;18.67;;;;;;;6.59;72.23;100588.06;5010671;28;20061;-45
2023/12/08 04:27:32;;;;;;;35.75;17.83;;;;;;;6.64;72.04;100598.56;5010061;28;20041;-45
2023/12/08 04:29:57;;;;;;;36.25;17.27;;;;;;;6.53;72.32;100604.31;5010082;28;20492;-46
2023/12/08 04:32:23;;;;;;;38.63;18.35;;;;;;;6.72;71.74;100605.66;5008629;28;20037;-45
2023/12/08 04:34:48;;;;;;;37.13;17.95;;;;;;;6.76;71.77;100610.09;5009903;28;20496;-47
2023/12/08 04:37:13;;;;;;;38.83;17.38;;;;;;;6.61;72.37;100595.88;5009485;28;20038;-45
2023/12/08 04:39:39;;;;;;;37.80;17.15;;;;;;;6.98;71.15;100600.22;5009970;28;20388;-44
2023/12/08 04:42:04;;;;;;;39.38;17.60;;;;;;;6.56;72.70;100590.59;5010102;28;20511;-44
2023/12/08 04:44:30;;;;;;;37.35;17.42;;;;;;;6.77;72.34;100583.31;5009882;28;20124;-44
2023/12/08 04:46:55;;;;;;;38.17;18.08;;;;;;;6.70;72.46;100580.56;5010959;28;20038;-47
2023/12/08 04:49:20;;;;;;;40.30;18.88;;;;;;;6.80;72.79;100579.94;5010583;28;20060;-46
2023/12/08 04:51:46;;;;;;;37.00;17.42;;;;;;;6.48;73.18;100581.75;5010877;28;20489;-46
2023/12/08 04:54:11;;;;;;;39.55;17.83;;;;;;;6.27;74.02;100571.75;5009797;28;20045;-47
2023/12/08 04:56:36;;;;;;;38.50;18.20;;;;;;;6.68;73.33;100575.34;5009581;28;20033;-46
2023/12/08 04:59:01;;;;;;;36.05;16.80;;;;;;;6.68;73.06;100585.72;5009905;28;20048;-45
2023/12/08 05:01:27;;;;;;;37.08;17.45;;;;;;;6.71;72.43;100583.19;5009330;28;20038;-44
2023/12/08 05:03:52;;;;;;;39.15;17.60;;;;;;;6.65;73.39;100583.03;5009908;28;20073;-45
2023/12/08 05:06:20;;;;;;;38.22;18.27;;;;;;;6.26;74.22;100574.28;5009261;28;20377;-47
2023/12/08 05:08:45;;;;;;;38.22;17.45;;;;;;;6.53;72.95;100568.06;5009974;28;20065;-47
2023/12/08 05:11:11;;;;;;;41.78;18.63;;;;;;;6.55;73.55;100583.66;5009893;28;20523;-46
2023/12/08 05:13:36;;;;;;;41.45;18.20;;;;;;;6.73;72.53;100584.09;5009486;28;20113;-45
2023/12/08 05:16:02;;;;;;;37.63;18.15;;;;;;;7.02;71.66;100589.97;5008766;28;20433;-49
2023/12/08 05:18:27;;;;;;;35.38;17.38;;;;;;;7.22;71.04;100593.88;5009347;28;20512;-44
2023/12/08 05:20:52;;;;;;;37.63;18.40;;;;;;;7.40;70.23;100595.13;5009537;28;20041;-48
2023/12/08 05:23:21;;;;;;;36.78;17.50;;;;;;;7.21;71.58;100592.13;5009334;28;20579;-45
2023/12/08 05:25:46;;;;;;;36.22;17.40;;;;;;;7.43;70.78;100590.03;5009913;28;20045;-45
2023/12/08 05:28:11;;;;;;;33.83;17.08;;;;;;;7.19;71.15;100580.88;5009472;28;20026;-45
2023/12/08 05:30:36;;;;;;;35.67;17.50;;;;;;;7.19;71.65;100580.88;5009428;28;20033;-49
2023/12/08 05:33:02;;;;;;;37.33;16.98;;;;;;;7.29;71.39;100574.16;5009662;28;20072;-46
2023/12/08 05:35:28;;;;;;;36.92;17.45;;;;;;;7.38;70.94;100571.75;5009389;28;20034;-45
2023/12/08 05:37:53;;;;;;;33.95;17.27;;;;;;;7.12;71.71;100570.31;5009866;28;20519;-46
2023/12/08 05:40:18;;;;;;;36.28;17.33;;;;;;;7.37;71.18;100580.41;5009067;28;20125;-45
2023/12/08 05:42:44;;;;;;;33.67;16.30;;;;;;;7.54;70.56;100588.53;5009640;28;20064;-46
2023/12/08 05:45:10;;;;;;;36.70;16.42;;;;;;;7.62;70.59;100582.63;5009469;28;20029;-45
2023/12/08 05:47:35;;;;;;;32.35;15.90;;;;;;;7.55;70.52;100582.50;5008695;28;20488;-49
2023/12/08 05:50:01;;;;;;;33.25;15.05;;;;;;;7.50;70.58;100584.13;5011891;28;20512;-45
2023/12/08 05:52:26;;;;;;;35.00;16.48;;;;;;;7.62;70.83;100592.16;5011670;28;20506;-47
2023/12/08 05:54:51;;;;;;;33.33;15.43;;;;;;;7.30;71.81;100588.88;5013306;28;20103;-46
2023/12/08 05:57:17;;;;;;;31.80;15.25;;;;;;;7.60;70.64;100586.94;5012547;28;20038;-45
2023/12/08 05:59:42;;;;;;;34.40;15.70;;;;;;;7.53;70.74;100594.56;5014160;28;20362;-47
2023/12/08 06:02:07;;;;;;;31.70;15.13;;;;;;;7.73;70.23;100596.72;5012110;28;20033;-43
2023/12/08 06:04:33;;;;;;;28.98;14.95;;;;;;;7.73;70.38;100595.84;5013179;28;20042;-44
2023/12/08 06:06:58;;;;;;;31.77;16.13;;;;;;;7.64;70.59;100604.31;5011958;28;20041;-45
2023/12/08 06:09:24;;;;;;;33.53;16.17;;;;;;;7.54;70.91;100604.97;5013028;28;20034;-46
2023/12/08 06:11:50;;;;;;;32.42;15.32;;;;;;;7.77;70.95;100608.03;5012419;28;20049;-50
2023/12/08 06:14:15;;;;;;;36.10;15.65;;;;;;;7.65;71.25;100612.97;5012030;28;20567;-47
2023/12/08 06:16:40;;;;;;;30.13;15.27;;;;;;;7.48;71.76;100602.25;5012330;28;20129;-45
2023/12/08 06:19:06;;;;;;;31.70;15.40;;;;;;;7.61;71.81;100598.19;5012624;28;20061;-46
2023/12/08 06:21:32;;;;;;;31.83;16.08;;;;;;;7.49;72.41;100598.81;5011459;28;20071;-44
2023/12/08 06:23:57;;;;;;;38.00;16.10;;;;;;;7.67;70.84;100606.09;5013034;28;20034;-45
2023/12/08 06:26:24;;;;;;;32.85;16.08;;;;;;;7.64;71.30;100603.44;5012114;28;20072;-49
2023/12/08 06:28:49;;;;;;;33.30;15.52;;;;;;;7.81;70.94;100598.59;5013057;28;20034;-44
2023/12/08 06:31:15;;;;;;;34.30;15.85;;;;;;;7.74;71.23;100608.81;5012277;28;20095;-46
2023/12/08 06:33:40;;;;;;;35.53;16.25;;;;;;;7.67;71.08;100606.97;5012818;28;20034;-43
2023/12/08 06:36:06;;;;;;;35.38;15.93;;;;;;;7.64;71.91;100611.22;5013672;28;20073;-44
2023/12/08 06:38:32;;;;;;;33.90;16.13;;;;;;;7.76;71.17;100608.88;5013656;28;20034;-45
2023/12/08 06:40:57;;;;;;;36.92;16.50;;;;;;;7.79;71.28;100610.66;5014480;28;20091;-49
2023/12/08 06:43:22;;;;;;;33.42;16.20;;;;;;;7.83;71.05;100610.75;5013617;28;20515;-46
2023/12/08 06:45:48;;;;;;;39.65;17.05;;;;;;;7.66;72.01;100612.13;5014886;28;20084;-48
2023/12/08 06:48:13;;;;;;;40.00;17.17;;;;;;;7.89;71.00;100607.41;5012385;28;20041;-44
2023/12/08 06:50:38;;;;;;;36.30;16.75;;;;;;;8.00;71.04;100605.88;5012481;28;20488;-47
2023/12/08 06:53:04;;;;;;;37.35;17.13;;;;;;;7.81;71.62;100606.38;5012959;28;20100;-47
2023/12/08 06:55:29;;;;;;;37.80;17.05;;;;;;;7.91;71.26;100603.13;5010522;28;20092;-45
2023/12/08 06:57:54;;;;;;;40.95;16.55;;;;;;;8.04;70.76;100611.19;5011641;28;20065;-45
2023/12/08 07:00:20;;;;;;;36.55;16.67;;;;;;;8.02;70.85;100612.88;5010486;28;20124;-46
2023/12/08 07:02:46;;;;;;;41.60;17.23;;;;;;;7.88;71.63;100603.91;5010211;28;20489;-45
2023/12/08 07:05:12;;;;;;;39.28;16.83;;;;;;;8.02;71.02;100606.78;5011751;28;20048;-44
2023/12/08 07:07:37;;;;;;;39.15;16.73;;;;;;;8.05;71.23;100606.88;5011126;28;20401;-44
2023/12/08 07:10:03;;;;;;;39.70;16.73;;;;;;;7.86;71.99;100603.03;5011944;28;20042;-45
2023/12/08 07:12:28;;;;;;;39.25;16.70;;;;;;;8.07;71.51;100612.94;5012013;28;20057;-44
2023/12/08 07:14:54;;;;;;;38.88;18.20;;;;;;;8.00;71.22;100611.94;5011624;28;20062;-44
2023/12/08 07:17:20;;;;;;;39.95;17.35;;;;;;;8.08;71.73;100612.97;5011196;28;20089;-45
2023/12/08 07:19:45;;;;;;;41.88;17.15;;;;;;;8.20;70.97;100617.53;5011115;28;20104;-44
2023/12/08 07:22:11;;;;;;;40.08;17.73;;;;;;;7.99;71.81;100615.38;5010877;28;20038;-46
2023/12/08 07:24:40;;;;;;;41.58;18.05;;;;;;;8.09;71.62;100616.47;5011064;28;20109;-45
2023/12/08 07:27:06;;;;;;;47.00;18.27;;;;;;;8.20;71.35;100625.31;5011766;28;20372;-45
2023/12/08 07:29:32;;;;;;;44.15;17.45;;;;;;;8.08;71.99;100625.97;5010417;28;20034;-45
2023/12/08 07:31:57;;;;;;;45.20;18.42;;;;;;;8.14;71.58;100625.19;5011729;28;20034;-45
2023/12/08 07:34:22;;;;;;;47.30;18.25;;;;;;;8.20;71.62;100620.13;5011776;28;20052;-45
2023/12/08 07:36:48;;;;;;;46.63;18.55;;;;;;;8.23;71.43;100620.19;5011483;28;20036;-45
2023/12/08 07:39:13;;;;;;;44.20;18.42;;;;;;;8.30;71.62;100618.56;5010525;28;20037;-46
2023/12/08 07:41:38;;;;;;;43.47;18.00;;;;;;;8.25;72.02;100630.59;5010727;28;20408;-45
2023/12/08 07:44:04;;;;;;;47.00;17.90;;;;;;;8.40;71.23;100621.41;5010662;28;20069;-50
2023/12/08 07:46:30;;;;;;;47.05;18.42;;;;;;;8.33;71.28;100626.47;5010211;28;20115;-45
2023/12/08 07:48:55;;;;;;;43.22;17.25;;;;;;;8.21;71.79;100629.69;5010671;28;20030;-46
2023/12/08 07:51:21;;;;;;;43.50;17.95;;;;;;;8.32;71.52;100642.88;5010100;28;20049;-45
2023/12/08 07:53:46;;;;;;;48.58;17.88;;;;;;;8.20;71.71;100640.91;5010400;28;20037;-47
2023/12/08 07:56:13;;;;;;;55.97;18.75;;;;;;;8.23;72.00;100646.16;5010567;28;20448;-44
2023/12/08 07:58:38;;;;;;;50.90;19.02;;;;;;;8.31;71.87;100647.19;5010300;28;20396;-44
2023/12/08 08:01:04;;;;;;;47.88;19.25;;;;;;;8.39;72.03;100650.81;5010168;28;20030;-45
2023/12/08 08:03:29;;;;;;;50.30;18.48;;;;;;;8.41;71.75;100653.47;5009843;28;20034;-47
2023/12/08 08:05:54;;;;;;;50.00;17.90;;;;;;;8.47;71.63;100649.25;5010346;28;20045;-45
2023/12/08 08:08:21;;;;;;;56.28;18.65;;;;;;;8.45;71.79;100658.72;5009752;28;20045;-48
2023/12/08 08:10:46;;;;;;;60.85;18.88;;;;;;;8.41;72.33;100664.72;5010339;28;20373;-44
2023/12/08 08:13:11;;;;;;;54.10;17.63;;;;;;;8.43;72.78;100657.81;5009193;28;20045;-45
2023/12/08 08:15:37;;;;;;;50.55;18.85;;;;;;;8.48;72.75;100647.50;5009136;28;20049;-47
2023/12/08 08:18:02;;;;;;;55.00;18.23;;;;;;;8.64;72.77;100657.34;5010250;28;20046;-44
2023/12/08 08:20:27;;;;;;;53.72;18.50;;;;;;;8.65;72.38;100650.44;5009634;28;20677;-47
2023/12/08 08:22:53;;;;;;;50.08;18.13;;;;;;;8.66;73.04;100659.97;5010296;28;20038;-46
2023/12/08 08:25:18;;;;;;;61.20;18.10;;;;;;;8.77;72.49;100658.44;5009852;28;20088;-44
2023/12/08 08:27:43;;;;;;;61.15;19.05;;;;;;;8.66;72.91;100662.56;5010558;28;20034;-45
2023/12/08 08:30:10;;;;;;;49.47;17.23;;;;;;;8.74;72.69;100669.63;5010335;28;20038;-47
2023/12/08 08:32:35;;;;;;;56.42;17.92;;;;;;;8.79;73.08;100665.38;5009658;28;20462;-45
2023/12/08 08:35:00;;;;;;;56.78;18.95;;;;;;;8.83;73.03;100677.63;5009830;28;20030;-45
2023/12/08 08:37:26;;;;;;;50.25;18.13;;;;;;;8.83;72.84;100682.81;5009898;28;20385;-44
2023/12/08 08:39:52;;;;;;;58.03;18.83;;;;;;;8.91;73.09;100691.59;5010099;28;20493;-45
2023/12/08 08:42:17;;;;;;;60.05;18.63;;;;;;;8.94;73.38;100690.78;5010085;28;20042;-44
2023/12/08 08:44:42;;;;;;;57.90;18.92;;;;;;;8.93;72.87;100689.91;5010379;28;20041;-49
2023/12/08 08:47:08;;;;;;;61.83;19.00;;;;;;;9.06;73.16;100682.31;5009785;28;20520;-45
2023/12/08 08:49:33;;;;;;;61.72;19.67;;;;;;;9.10;72.86;100684.09;5009215;28;20133;-50
2023/12/08 08:51:59;;;;;;;53.15;18.60;;;;;;;9.17;72.94;100688.56;5010152;28;20121;-44
2023/12/08 08:54:25;;;;;;;50.85;18.88;;;;;;;9.05;73.33;100685.75;5009439;28;20038;-50
2023/12/08 08:56:50;;;;;;;55.65;19.95;;;;;;;9.13;73.23;100691.97;5010095;28;20042;-47
2023/12/08 08:59:15;;;;;;;56.08;19.88;;;;;;;9.23;72.75;100688.66;5009619;28;20026;-49
2023/12/08 09:01:42;;;;;;;64.32;20.35;;;;;;;9.13;73.12;100695.44;5009750;28;20026;-46
2023/12/08 09:04:07;;;;;;;54.05;19.95;;;;;;;9.26;72.92;100696.53;5009891;28;20057;-45
2023/12/08 09:06:33;;;;;;;57.08;19.35;;;;;;;9.28;73.16;100693.06;5008086;28;20225;-44
2023/12/08 09:08:58;;;;;;;63.28;20.85;;;;;;;9.26;73.46;100696.53;5010782;28;20508;-45
2023/12/08 09:11:23;;;;;;;61.47;20.63;;;;;;;9.35;72.84;100696.66;5011386;28;20111;-43
2023/12/08 09:13:49;;;;;;;66.20;20.30;;;;;;;9.38;73.27;100698.44;5011209;28;20109;-44
2023/12/08 09:16:14;;;;;;;56.45;19.38;;;;;;;9.52;73.13;100692.56;5009379;28;20488;-44
2023/12/08 09:18:40;;;;;;;71.47;20.48;;;;;;;9.31;73.47;100690.53;5009916;28;20113;-47
2023/12/08 09:21:05;;;;;;;72.85;20.90;;;;;;;9.33;73.79;100695.78;5010121;28;20040;-48
2023/12/08 09:23:30;;;;;;;64.05;19.77;;;;;;;9.51;74.06;100697.78;5009761;28;20117;-45
2023/12/08 09:25:56;;;;;;;77.60;21.50;;;;;;;9.63;73.64;100700.56;5013693;28;20044;-44
2023/12/08 09:28:21;;;;;;;69.07;21.40;;;;;;;9.72;73.73;100701.53;5013957;28;20519;-45
2023/12/08 09:30:47;;;;;;;74.80;21.58;;;;;;;9.77;73.54;100699.00;5014973;28;20026;-43
2023/12/08 09:33:12;;;;;;;62.55;22.00;;;;;;;9.87;73.71;100706.09;5013971;28;20136;-43
2023/12/08 09:35:38;;;;;;;68.97;21.30;;;;;;;10.06;73.35;100720.25;5014049;28;20045;-44
2023/12/08 09:38:04;;;;;;;73.78;22.35;;;;;;;9.91;73.67;100714.81;5013919;28;20038;-44
2023/12/08 09:40:32;;;;;;;67.10;21.98;;;;;;;9.98;73.66;100721.84;5013256;28;20064;-44
2023/12/08 09:43:15;;;;;;;73.25;22.60;;;;;;;10.07;73.14;100721.97;5014253;28;20034;-46
2023/12/08 09:45:42;;;;;;;83.18;23.13;;;;;;;10.08;73.56;100727.19;5021956;28;20034;-44
2023/12/08 09:48:09;;;;;;;77.72;22.73;;;;;;;10.18;73.17;100723.03;5014136;28;20092;-44
2023/12/08 09:50:36;;;;;;;85.05;22.30;;;;;;;10.15;73.19;100715.13;5014279;28;20034;-44
2023/12/08 09:53:02;;;;;;;75.75;23.48;;;;;;;10.08;73.96;100721.13;5013274;28;20100;-50
2023/12/08 09:55:28;;;;;;;82.40;23.75;;;;;;;10.30;74.01;100725.78;5011195;28;20060;-47
2023/12/08 09:57:54;;;;;;;81.03;23.40;;;;;;;10.41;73.39;100725.91;5013432;28;20100;-44
2023/12/08 10:00:21;;;;;;;97.35;23.58;;;;;;;10.38;73.20;100718.03;5012710;28;20500;-47
2023/12/08 10:02:46;;;;;;;87.75;22.63;;;;;;;10.36;73.53;100720.66;5012931;28;20457;-45
2023/12/08 10:05:12;;;;;;;93.85;24.63;;;;;;;10.23;74.20;100730.91;5012889;28;20124;-48
2023/12/08 10:07:43;;;;;;;94.07;24.42;;;;;;;10.43;73.71;100726.81;5012651;28;20418;-46
2023/12/08 10:10:09;;;;;;;100.47;24.58;;;;;;;10.45;74.16;100730.28;5012734;28;20124;-49
2023/12/08 10:12:35;;;;;;;117.80;24.98;;;;;;;10.22;74.50;100734.34;5012186;28;20030;-46
2023/12/08 10:15:01;;;;;;;90.15;24.55;;;;;;;10.16;74.80;100735.13;5012546;28;20100;-43
2023/12/08 10:17:26;;;;;;;93.15;23.83;;;;;;;10.71;73.70;100738.41;5012263;28;20117;-52
2023/12/08 10:20:11;;;;;;;84.43;24.02;;;;;;;10.53;74.34;100731.25;5012647;28;20046;-48
2023/12/08 10:22:50;;;;;;;;;;;;;;;10.57;74.88;100733.03;5012598;28;20492;-45
2023/12/08 10:25:17;;;;;;;87.05;23.20;;;;;;;10.77;74.09;100730.66;5012199;28;19920;-48
2023/12/08 10:27:46;;;;;;;76.15;22.23;;;;;;;10.85;74.15;100724.66;5012390;28;20072;-49
2023/12/08 10:30:12;;;;;;;93.75;23.75;;;;;;;10.89;74.13;100713.38;5011795;28;20038;-47
2023/12/08 10:32:37;;;;;;;84.70;23.40;;;;;;;10.98;74.20;100721.28;5011577;28;20030;-45
2023/12/08 10:35:03;;;;;;;80.43;23.13;;;;;;;10.93;73.98;100720.38;5011904;28;20041;-45
2023/12/08 10:37:29;;;;;;;85.13;24.33;;;;;;;10.85;75.12;100721.19;5011200;28;20112;-45
2023/12/08 10:39:54;;;;;;;79.95;23.38;;;;;;;11.10;74.51;100719.66;5012520;28;20117;-44
2023/12/08 10:42:19;;;;;;;76.85;23.20;;;;;;;11.15;74.91;100718.84;5012467;28;20408;-45
2023/12/08 10:44:45;;;;;;;70.40;22.45;;;;;;;11.30;74.98;100724.16;5012931;28;20076;-45
2023/12/08 10:47:12;;;;;;;97.53;24.35;;;;;;;10.88;75.57;100722.06;5012052;28;20581;-45
2023/12/08 10:49:38;;;;;;;86.40;24.42;;;;;;;11.04;75.33;100717.84;5011542;28;20080;-44
2023/12/08 10:52:05;;;;;;;84.53;23.77;;;;;;;11.10;75.33;100724.88;5011932;28;20553;-49
2023/12/08 10:54:31;;;;;;;84.38;24.35;;;;;;;11.19;75.34;100725.81;5011344;28;20041;-45
2023/12/08 10:56:57;;;;;;;84.95;24.13;;;;;;;11.31;75.30;100727.66;5011922;28;20117;-45
2023/12/08 10:59:28;;;;;;;89.25;23.95;;;;;;;11.39;74.43;100732.09;5011431;28;20061;-53
2023/12/08 11:01:55;;;;;;;91.05;24.80;;;;;;;11.39;74.81;100731.22;5010510;28;20403;-45
2023/12/08 11:04:21;;;;;;;89.45;24.33;;;;;;;11.35;75.14;100727.69;5010930;28;20164;-46
2023/12/08 11:06:57;;;;;;;85.65;24.02;;;;;;;11.39;75.25;100733.81;5011531;28;20044;-47
2023/12/08 11:09:27;;;;;;;95.38;24.90;;;;;;;11.45;75.14;100739.09;5011376;28;20044;-48